createdAt,value
2023-05-10T00:01:42.002Z,7.90
2023-05-10T00:08:30.871Z,8.60
2023-05-10T00:11:00.366Z,8.60
2023-05-10T00:17:55.122Z,9.57
2023-05-10T00:20:24.387Z,8.30
2023-05-10T00:22:53.582Z,8.10
2023-05-10T00:29:36.008Z,7.10
2023-05-10T00:32:05.131Z,6.20
2023-05-10T00:38:40.576Z,6.10
2023-05-10T00:41:09.988Z,6.60
2023-05-10T00:47:59.398Z,5.87
2023-05-10T00:50:28.776Z,6.70
2023-05-10T00:52:58.171Z,5.77
2023-05-10T00:59:53.617Z,5.30
2023-05-10T01:02:23.084Z,5.63
2023-05-10T01:09:13.123Z,5.60
2023-05-10T01:11:43.041Z,5.93
2023-05-10T01:18:38.975Z,6.10
2023-05-10T01:21:17.909Z,5.67
2023-05-10T01:24:15.469Z,6.00
2023-05-10T01:27:17.641Z,5.73
2023-05-10T01:34:10.419Z,5.07
2023-05-10T01:36:45.471Z,5.63
2023-05-10T01:43:46.106Z,13.83
2023-05-10T01:50:33.240Z,6.30
2023-05-10T01:53:03.666Z,6.93
2023-05-10T01:59:48.558Z,5.30
2023-05-10T02:02:18.062Z,5.30
2023-05-10T02:09:00.702Z,5.20
2023-05-10T02:15:49.890Z,4.80
2023-05-10T02:18:19.439Z,5.60
2023-05-10T02:25:10.525Z,10.20
2023-05-10T02:27:40.233Z,5.13
2023-05-10T02:34:05.772Z,4.53
2023-05-10T02:40:47.790Z,5.10
2023-05-10T02:43:19.225Z,5.27
2023-05-10T02:50:00.663Z,5.27
2023-05-10T02:52:33.736Z,5.17
2023-05-10T02:55:05.596Z,5.37
2023-05-10T03:01:54.580Z,5.37
2023-05-10T03:04:24.427Z,4.77
2023-05-10T03:11:25.678Z,4.50
2023-05-10T03:14:03.465Z,4.57
2023-05-10T03:21:03.098Z,4.40
2023-05-10T03:23:36.917Z,5.07
2023-05-10T03:26:07.736Z,4.90
2023-05-10T03:28:37.346Z,5.93
2023-05-10T03:31:07.659Z,5.20
2023-05-10T03:33:36.871Z,4.50
2023-05-10T03:36:08.005Z,6.50
2023-05-10T03:38:37.197Z,6.30
2023-05-10T03:41:06.705Z,5.67
2023-05-10T03:43:36.108Z,5.00
2023-05-10T03:46:06.976Z,4.93
2023-05-10T03:52:49.986Z,4.47
2023-05-10T03:55:19.080Z,5.00
2023-05-10T04:02:15.979Z,4.87
2023-05-10T04:04:45.561Z,4.83
2023-05-10T04:11:35.266Z,4.47
2023-05-10T04:14:04.655Z,5.47
2023-05-10T04:16:34.020Z,4.20
2023-05-10T04:19:03.882Z,5.20
2023-05-10T04:21:33.522Z,4.60
2023-05-10T04:24:02.977Z,4.30
2023-05-10T04:26:32.589Z,11.33
2023-05-10T04:33:24.235Z,5.30
2023-05-10T04:35:53.224Z,4.17
2023-05-10T04:42:42.927Z,4.57
2023-05-10T04:45:13.046Z,3.77
2023-05-10T04:52:04.388Z,4.30
2023-05-10T04:58:59.846Z,5.07
2023-05-10T05:01:29.374Z,4.60
2023-05-10T05:08:12.585Z,4.20
2023-05-10T05:10:42.179Z,4.80
2023-05-10T05:17:29.957Z,4.90
2023-05-10T05:24:19.437Z,6.87
2023-05-10T05:26:48.833Z,6.10
2023-05-10T05:33:30.960Z,6.30
2023-05-10T05:36:00.368Z,6.00
2023-05-10T05:42:48.834Z,5.40
2023-05-10T05:49:30.367Z,6.20
2023-05-10T05:52:02.513Z,5.80
2023-05-10T05:58:52.938Z,5.80
2023-05-10T06:01:22.658Z,30.63
2023-05-10T06:03:53.593Z,7.13
2023-05-10T06:06:23.184Z,5.40
2023-05-10T06:08:52.586Z,6.10
2023-05-10T06:11:22.704Z,5.33
2023-05-10T06:13:57.733Z,6.43
2023-05-10T06:16:31.673Z,5.83
2023-05-10T06:19:08.120Z,5.83
2023-05-10T06:21:39.561Z,4.73
2023-05-10T06:24:09.906Z,4.97
2023-05-10T06:26:39.995Z,5.80
2023-05-10T06:29:10.835Z,5.57
2023-05-10T06:31:40.899Z,5.83
2023-05-10T06:34:10.556Z,5.97
2023-05-10T06:36:39.851Z,4.90
2023-05-10T06:39:08.952Z,5.20
2023-05-10T06:41:38.146Z,5.20
2023-05-10T06:44:07.449Z,4.80
2023-05-10T06:46:38.499Z,4.80
2023-05-10T06:49:07.791Z,4.20
2023-05-10T06:55:42.839Z,4.57
2023-05-10T06:58:12.445Z,5.20
2023-05-10T07:09:32.078Z,22.47
2023-05-10T07:16:19.654Z,4.20
2023-05-10T07:18:49.228Z,3.73
2023-05-10T07:25:50.507Z,5.20
2023-05-10T07:28:20.006Z,18.13
2023-05-10T07:35:01.821Z,4.80
2023-05-10T07:37:31.224Z,6.10
2023-05-10T07:40:00.320Z,4.37
2023-05-10T07:42:30.731Z,5.50
2023-05-10T07:45:00.363Z,4.90
2023-05-10T07:51:41.653Z,5.23
2023-05-10T07:54:10.947Z,5.33
2023-05-10T08:00:53.277Z,4.50
2023-05-10T08:03:22.822Z,4.30
2023-05-10T08:10:13.504Z,3.60
2023-05-10T08:12:42.997Z,3.10
2023-05-10T08:15:13.337Z,8.63
2023-05-10T08:21:57.001Z,3.53
2023-05-10T08:24:26.187Z,3.13
2023-05-10T08:31:09.182Z,2.70
2023-05-10T08:33:38.641Z,2.37
2023-05-10T08:39:26.717Z,3.50
2023-05-10T08:46:10.809Z,3.00
2023-05-10T08:48:40.989Z,3.40
2023-05-10T08:51:11.306Z,3.03
2023-05-10T08:53:40.796Z,2.70
2023-05-10T08:56:11.656Z,2.60
2023-05-10T08:58:41.049Z,2.77
2023-05-10T09:01:10.814Z,2.73
2023-05-10T09:03:41.737Z,2.83
2023-05-10T09:06:10.891Z,2.57
2023-05-10T09:08:40.392Z,2.37
2023-05-10T09:11:11.574Z,2.53
2023-05-10T09:13:41.038Z,2.10
2023-05-10T09:16:20.980Z,2.50
2023-05-10T09:18:52.260Z,2.63
2023-05-10T09:21:22.715Z,2.13
2023-05-10T09:23:55.450Z,2.17
2023-05-10T09:26:29.461Z,2.87
2023-05-10T09:29:01.494Z,2.47
2023-05-10T09:31:49.064Z,2.23
2023-05-10T09:34:23.147Z,2.03
2023-05-10T09:36:57.575Z,1.90
2023-05-10T09:39:34.860Z,2.80
2023-05-10T09:42:22.187Z,2.43
2023-05-10T09:44:52.089Z,3.07
2023-05-10T09:51:40.053Z,2.00
2023-05-10T09:58:17.566Z,2.43
2023-05-10T10:00:49.233Z,2.10
2023-05-10T10:12:21.540Z,2.37
2023-05-10T10:14:53.820Z,2.67
2023-05-10T10:17:23.723Z,2.20
2023-05-10T10:19:53.334Z,2.00
2023-05-10T10:22:22.655Z,2.47
2023-05-10T10:29:17.970Z,2.20
2023-05-10T10:31:56.923Z,2.00
2023-05-10T10:39:05.438Z,1.93
2023-05-10T10:41:36.111Z,2.00
2023-05-10T10:48:26.282Z,2.20
2023-05-10T10:51:00.186Z,2.30
2023-05-10T10:53:30.839Z,1.87
2023-05-10T10:56:09.013Z,1.93
2023-05-10T11:02:50.193Z,2.20
2023-05-10T11:14:15.481Z,2.70
2023-05-10T11:16:46.153Z,2.87
2023-05-10T11:23:51.999Z,3.23
2023-05-10T11:26:24.466Z,2.70
2023-05-10T11:28:54.284Z,3.37
2023-05-10T11:31:28.100Z,2.87
2023-05-10T11:33:59.555Z,2.80
2023-05-10T11:36:30.876Z,2.20
2023-05-10T11:39:00.171Z,2.50
2023-05-10T11:41:31.926Z,2.80
2023-05-10T11:44:01.857Z,2.90
2023-05-10T11:46:33.141Z,2.50
2023-05-10T11:49:05.704Z,2.67
2023-05-10T11:51:38.145Z,2.40
2023-05-10T11:54:11.026Z,2.30
2023-05-10T11:56:41.541Z,2.67
2023-05-10T11:59:11.143Z,2.93
2023-05-10T12:01:41.990Z,2.20
2023-05-10T12:04:11.453Z,2.87
2023-05-10T12:15:43.202Z,5.73
2023-05-10T12:18:13.960Z,2.57
2023-05-10T12:25:02.098Z,3.20
2023-05-10T12:27:34.865Z,2.23
2023-05-10T12:30:05.728Z,2.20
2023-05-10T12:32:42.158Z,2.60
2023-05-10T12:35:13.232Z,2.50
2023-05-10T12:37:42.426Z,2.80
2023-05-10T12:40:13.457Z,2.63
2023-05-10T12:42:42.693Z,2.70
2023-05-10T12:45:12.802Z,2.67
2023-05-10T12:47:44.030Z,2.70
2023-05-10T12:50:15.269Z,2.83
2023-05-10T12:52:44.497Z,3.00
2023-05-10T12:55:13.668Z,2.93
2023-05-10T12:57:42.858Z,2.40
2023-05-10T13:00:13.183Z,3.27
2023-05-10T13:02:43.311Z,2.83
2023-05-10T13:05:14.542Z,3.07
2023-05-10T13:07:45.468Z,2.63
2023-05-10T13:10:14.752Z,2.50
2023-05-10T13:17:03.477Z,2.80
2023-05-10T13:19:32.441Z,2.10
2023-05-10T13:26:21.746Z,2.20
2023-05-10T13:28:53.003Z,2.37
2023-05-10T13:35:47.174Z,2.53
2023-05-10T13:42:37.817Z,3.03
2023-05-10T13:45:08.442Z,2.80
2023-05-10T13:51:55.998Z,3.13
2023-05-10T13:54:26.709Z,2.70
2023-05-10T14:01:16.450Z,3.50
2023-05-10T14:08:05.118Z,4.20
2023-05-10T14:10:34.608Z,3.30
2023-05-10T14:17:23.569Z,2.93
2023-05-10T14:19:53.517Z,2.57
2023-05-10T14:25:31.220Z,3.17
2023-05-10T14:32:07.154Z,2.43
2023-05-10T14:34:38.033Z,2.70
2023-05-10T14:37:07.456Z,2.97
2023-05-10T14:39:36.517Z,3.00
2023-05-10T14:42:06.050Z,3.03
2023-05-10T14:48:53.485Z,3.23
2023-05-10T14:51:24.231Z,4.37
2023-05-10T14:58:12.073Z,3.70
2023-05-10T15:00:41.283Z,3.50
2023-05-10T15:07:33.014Z,4.07
2023-05-10T15:19:05.047Z,3.63
2023-05-10T15:21:40.267Z,3.97
2023-05-10T15:28:23.520Z,4.53
2023-05-10T15:30:53.148Z,4.30
2023-05-10T15:37:48.868Z,5.47
2023-05-10T15:40:18.479Z,5.07
2023-05-10T15:47:08.691Z,5.27
2023-05-10T15:53:56.598Z,5.00
2023-05-10T15:56:30.250Z,5.17
2023-05-10T16:03:19.294Z,4.50
2023-05-10T16:05:48.845Z,5.30
2023-05-10T16:08:18.554Z,3.80
2023-05-10T16:10:47.544Z,3.10
2023-05-10T16:13:17.358Z,4.07
2023-05-10T16:20:09.829Z,3.33
2023-05-10T16:22:39.228Z,3.97
2023-05-10T16:29:33.532Z,4.40
2023-05-10T16:32:03.053Z,4.60
2023-05-10T16:34:32.548Z,4.50
2023-05-10T16:37:03.682Z,3.93
2023-05-10T16:43:38.947Z,3.50
2023-05-10T16:50:27.229Z,3.30
2023-05-10T16:52:58.658Z,4.00
2023-05-10T16:59:46.112Z,11.70
2023-05-10T17:06:28.233Z,3.83
2023-05-10T17:08:59.016Z,3.80
2023-05-10T17:20:17.468Z,3.97
2023-05-10T17:22:46.672Z,5.07
2023-05-10T17:25:17.833Z,4.97
2023-05-10T17:27:47.207Z,3.93
2023-05-10T17:30:17.313Z,4.17
2023-05-10T17:32:46.490Z,3.80
2023-05-10T17:35:16.064Z,3.63
2023-05-10T17:37:45.740Z,4.17
2023-05-10T17:40:15.039Z,4.50
2023-05-10T17:42:45.982Z,3.93
2023-05-10T17:45:15.309Z,4.33
2023-05-10T17:47:45.249Z,3.80
2023-05-10T17:50:18.482Z,3.43
2023-05-10T17:52:52.387Z,3.70
2023-05-10T17:59:41.876Z,3.87
2023-05-10T18:06:23.082Z,6.07
2023-05-10T18:08:52.582Z,7.40
2023-05-10T18:15:41.527Z,7.90
2023-05-10T18:22:29.216Z,4.70
2023-05-10T18:24:58.399Z,5.30
2023-05-10T18:31:48.633Z,4.87
2023-05-10T18:34:17.925Z,5.17
2023-05-10T18:36:47.331Z,4.67
2023-05-10T18:39:18.268Z,6.10
2023-05-10T18:41:47.667Z,5.53
2023-05-10T18:44:16.556Z,6.40
2023-05-10T18:46:45.782Z,9.00
2023-05-10T18:49:16.594Z,8.37
2023-05-10T18:51:46.196Z,7.83
2023-05-10T18:54:17.362Z,7.77
2023-05-10T18:56:46.739Z,11.70
2023-05-10T18:59:15.838Z,13.33
2023-05-10T19:01:45.159Z,7.00
2023-05-10T19:08:27.666Z,6.60
2023-05-10T19:10:57.096Z,7.20
2023-05-10T19:22:47.227Z,7.40
2023-05-10T19:25:23.060Z,8.00
2023-05-10T19:32:01.045Z,7.00
2023-05-10T19:38:49.355Z,7.20
2023-05-10T19:41:21.419Z,7.07
2023-05-10T19:48:09.021Z,7.77
2023-05-10T19:55:03.487Z,7.33
2023-05-10T19:57:36.268Z,7.53
2023-05-10T20:04:18.490Z,8.77
2023-05-10T20:06:49.023Z,9.07
2023-05-10T20:13:38.528Z,8.57
2023-05-10T20:16:07.713Z,7.90
2023-05-10T20:18:38.550Z,9.30
2023-05-10T20:21:08.987Z,7.60
2023-05-10T20:23:38.581Z,7.83
2023-05-10T20:26:07.979Z,8.40
2023-05-10T20:28:38.716Z,8.60
2023-05-10T20:31:08.336Z,7.90
2023-05-10T20:33:42.539Z,7.50
2023-05-10T20:36:11.740Z,9.53
2023-05-10T20:38:40.939Z,9.93
2023-05-10T20:41:10.132Z,9.53
2023-05-10T20:43:41.060Z,9.53
2023-05-10T20:46:10.298Z,9.37
2023-05-10T20:48:39.755Z,7.90
2023-05-10T20:55:23.009Z,7.83
2023-05-10T20:57:52.104Z,8.30
2023-05-10T21:04:28.638Z,35.77
2023-05-10T21:06:58.922Z,34.87
2023-05-10T21:09:28.120Z,23.73
2023-05-10T21:11:57.110Z,17.50
2023-05-10T21:14:26.305Z,12.10
2023-05-10T21:16:55.602Z,10.97
2023-05-10T21:19:24.802Z,9.67
2023-05-10T21:21:57.479Z,10.37
2023-05-10T21:24:26.470Z,8.93
2023-05-10T21:26:55.574Z,8.90
2023-05-10T21:29:24.460Z,10.73
2023-05-10T21:31:53.764Z,9.47
2023-05-10T21:34:23.464Z,8.83
2023-05-10T21:36:52.768Z,10.00
2023-05-10T21:39:23.298Z,9.80
2023-05-10T21:41:52.897Z,9.20
2023-05-10T21:44:21.997Z,9.20
2023-05-10T21:51:09.340Z,8.90
2023-05-10T21:53:39.351Z,8.60
2023-05-10T22:00:28.751Z,9.23
2023-05-10T22:02:58.331Z,9.40
2023-05-10T22:08:45.394Z,9.40
2023-05-10T22:15:36.598Z,9.20
2023-05-10T22:18:06.385Z,10.57
2023-05-10T22:20:35.428Z,10.10
2023-05-10T22:23:04.633Z,9.83
2023-05-10T22:25:34.224Z,10.10
2023-05-10T22:28:03.629Z,10.13
2023-05-10T22:30:33.266Z,9.50
2023-05-10T22:33:03.915Z,10.43
2023-05-10T22:35:33.277Z,9.20
2023-05-10T22:38:02.777Z,9.87
2023-05-10T22:40:32.184Z,10.80
2023-05-10T22:43:01.482Z,9.50
2023-05-10T22:45:31.794Z,10.37
2023-05-10T22:52:20.472Z,9.10
2023-05-10T22:54:49.560Z,11.77
2023-05-10T23:01:37.356Z,11.67
2023-05-10T23:04:06.618Z,10.23
2023-05-10T23:10:55.803Z,9.00
2023-05-10T23:21:55.566Z,10.20
2023-05-10T23:24:24.941Z,11.17
2023-05-10T23:31:22.098Z,10.70
2023-05-10T23:33:51.443Z,11.30
2023-05-10T23:36:20.538Z,10.70
2023-05-10T23:38:49.736Z,9.27
2023-05-10T23:41:19.143Z,10.13
2023-05-10T23:48:16.708Z,8.97
2023-05-10T23:50:46.437Z,9.37
2023-05-10T23:57:27.542Z,7.20
2023-05-10T23:59:56.630Z,7.97
